Time;durP1;ratioP1;P1;durP2;ratioP2;P2;SDS_P1;SDS_P2;PMS_P1;PMS_P2;Temp;Humidity;BMP_temperature;BMP_pressure;BME280_temperature;BME280_humidity;BME280_pressure;Samples;Min_cycle;Max_cycle;Signal;HPM_P1;HPM_P2
2021/08/23 00:01:42;;;;;;;;;;;;;;;;;;4946067;28;20317;-86
2021/08/23 00:04:12;;;;;;;;;;;;;;;;;;4947735;28;19930;-86
2021/08/23 00:06:40;;;;;;;;;;;;;;;;;;4937729;28;19931;-86
2021/08/23 00:09:08;;;;;;;;;;;;;;;;;;4927135;28;20401;-85
2021/08/23 00:11:36;;;;;;;;;;;;;;;;;;4943596;28;19926;-88
2021/08/23 00:14:04;;;;;;;;;;;;;;;;;;4922480;28;20377;-87
2021/08/23 00:16:33;;;;;;;;;;;;;;;;;;4931875;28;19927;-89
2021/08/23 00:19:01;;;;;;;;;;;;;;;;;;4959428;28;19934;-88
2021/08/23 00:21:40;;;;;;;;;;;;;;;;;;4967798;28;19926;-88
2021/08/23 00:24:21;;;;;;;;;;;;;;;;;;4945579;28;20427;-87
2021/08/23 00:26:50;;;;;;;;;;;;;;;;;;4923120;28;19949;-88
2021/08/23 00:29:18;;;;;;;;;;;;;;;;;;4956092;28;19932;-88
2021/08/23 00:31:47;;;;;;;;;;;;;;;;;;4932915;28;19927;-88
2021/08/23 00:34:15;;;;;;;;;;;;;;;;;;4927718;28;19937;-88
2021/08/23 00:36:45;;;;;;;;;;;;;;;;;;4947667;28;19926;-88
2021/08/23 00:39:14;;;;;;;;;;;;;;;;;;4950191;28;19926;-89
2021/08/23 00:41:42;;;;;;;;;;;;;;;;;;4966006;28;19934;-89
2021/08/23 00:44:10;;;;;;;;;;;;;;;;;;4948323;28;19933;-87
2021/08/23 00:46:41;;;;;;;;;;;;;;;;;;4953946;28;19922;-86
2021/08/23 00:49:10;;;;;;;;;;;;;;;;;;4961507;28;19932;-88
2021/08/23 00:51:38;;;;;;;;;;;;;;;;;;4928680;28;19937;-88
2021/08/23 00:54:08;;;;;;;;;;;;;;;;;;4957723;28;20290;-89
2021/08/23 00:56:37;;;;;;;;;;;;;;;;;;4933818;28;19934;-88
2021/08/23 00:59:08;;;;;;;;;;;;;;;;;;4932052;28;19933;-88
2021/08/23 01:01:40;;;;;;;;;;;;;;;;;;4960933;28;19926;-88
2021/08/23 01:04:09;;;;;;;;;;;;;;;;;;4947662;28;19926;-88
2021/08/23 01:06:37;;;;;;;;;;;;;;;;;;4938175;28;19926;-89
2021/08/23 01:09:06;;;;;;;;;;;;;;;;;;4943045;28;19926;-88
2021/08/23 01:11:41;;;;;;;;;;;;;;;;;;4929409;28;19927;-88
2021/08/23 01:14:09;;;;;;;;;;;;;;;;;;4961416;28;19933;-88
2021/08/23 01:16:37;;;;;;;;;;;;;;;;;;4962912;28;19930;-87
2021/08/23 01:19:06;;;;;;;;;;;;;;;;;;4945722;28;19930;-88
2021/08/23 01:21:35;;;;;;;;;;;;;;;;;;4930286;28;20334;-89
2021/08/23 01:24:03;;;;;;;;;;;;;;;;;;4947172;28;19926;-88
2021/08/23 01:26:33;;;;;;;;;;;;;;;;;;4937610;28;20685;-88
2021/08/23 01:29:04;;;;;;;;;;;;;;;;;;4946342;28;19933;-87
2021/08/23 01:31:33;;;;;;;;;;;;;;;;;;4934206;28;20418;-87
2021/08/23 01:34:03;;;;;;;;;;;;;;;;;;4947098;28;19930;-88
2021/08/23 01:36:32;;;;;;;;;;;;;;;;;;4938562;28;20328;-88
2021/08/23 01:39:00;;;;;;;;;;;;;;;;;;4934523;28;20451;-88
2021/08/23 01:41:28;;;;;;;;;;;;;;;;;;4931552;28;19926;-86
2021/08/23 01:43:56;;;;;;;;;;;;;;;;;;4935034;28;20308;-88
2021/08/23 01:46:29;;;;;;;;;;;;;;;;;;4949096;28;20312;-85
2021/08/23 01:48:58;;;;;;;;;;;;;;;;;;4944939;28;19926;-89
2021/08/23 01:51:28;;;;;;;;;;;;;;;;;;4933715;28;20471;-88
2021/08/23 01:53:56;;;;;;;;;;;;;;;;;;4921977;28;19926;-88
2021/08/23 01:56:25;;;;;;;;;;;;;;;;;;4936751;28;19950;-87
2021/08/23 01:58:53;;;;;;;;;;;;;;;;;;4959392;28;19934;-88
2021/08/23 02:01:21;;;;;;;;;;;;;;;;;;4926335;28;19926;-87
2021/08/23 02:03:49;;;;;;;;;;;;;;;;;;4935354;29;19927;-88
2021/08/23 02:06:18;;;;;;;;;;;;;;;;;;4950742;28;20278;-88
2021/08/23 02:08:47;;;;;;;;;;;;;;;;;;4933743;28;19934;-88
2021/08/23 02:11:16;;;;;;;;;;;;;;;;;;4968834;28;19926;-89
2021/08/23 02:13:44;;;;;;;;;;;;;;;;;;4950438;28;19926;-89
2021/08/23 02:16:13;;;;;;;;;;;;;;;;;;4940291;28;20010;-89
2021/08/23 02:18:42;;;;;;;;;;;;;;;;;;4947025;28;19930;-88
2021/08/23 02:21:10;;;;;;;;;;;;;;;;;;4955211;28;19933;-86
2021/08/23 02:23:38;;;;;;;;;;;;;;;;;;4958291;28;19914;-86
2021/08/23 02:26:08;;;;;;;;;;;;;;;;;;4976339;28;19921;-86
2021/08/23 02:28:36;;;;;;;;;;;;;;;;;;4972740;28;19914;-87
2021/08/23 02:31:04;;;;;;;;;;;;;;;;;;4958367;28;19930;-82
2021/08/23 02:33:33;;;;;;;;;;;;;;;;;;4935236;28;19930;-90
2021/08/23 02:36:02;;;;;;;;;;;;;;;;;;4951263;28;19926;-90
2021/08/23 02:38:30;;;;;;;;;;;;;;;;;;4955446;28;20498;-90
2021/08/23 02:40:59;;;;;;;;;;;;;;;;;;4949619;28;19933;-90
2021/08/23 02:43:28;;;;;;;;;;;;;;;;;;4943265;28;20297;-90
2021/08/23 02:45:57;;;;;;;;;;;;;;;;;;4934350;28;20308;-87
2021/08/23 02:48:25;;;;;;;;;;;;;;;;;;4963479;28;19926;-90
2021/08/23 02:50:53;;;;;;;;;;;;;;;;;;4946752;28;19989;-90
2021/08/23 02:53:22;;;;;;;;;;;;;;;;;;4948463;28;20379;-88
2021/08/23 02:55:50;;;;;;;;;;;;;;;;;;4947783;28;19953;-88
2021/08/23 02:58:19;;;;;;;;;;;;;;;;;;4919519;28;19934;-88
2021/08/23 03:00:48;;;;;;;;;;;;;;;;;;4944670;28;20312;-88
2021/08/23 03:03:17;;;;;;;;;;;;;;;;;;4933595;29;19927;-89
2021/08/23 03:05:45;;;;;;;;;;;;;;;;;;4937056;28;19930;-88
2021/08/23 03:08:13;;;;;;;;;;;;;;;;;;4947597;28;19934;-88
2021/08/23 03:10:42;;;;;;;;;;;;;;;;;;4951859;28;19930;-88
2021/08/23 03:13:10;;;;;;;;;;;;;;;;;;4937515;28;19926;-88
2021/08/23 03:15:38;;;;;;;;;;;;;;;;;;4940028;28;19926;-87
2021/08/23 03:18:09;;;;;;;;;;;;;;;;;;4937718;28;19938;-88
2021/08/23 03:20:37;;;;;;;;;;;;;;;;;;4953730;28;19934;-89
2021/08/23 03:23:06;;;;;;;;;;;;;;;;;;4944917;28;19926;-89
2021/08/23 03:25:34;;;;;;;;;;;;;;;;;;4945969;28;19930;-89
2021/08/23 03:28:02;;;;;;;;;;;;;;;;;;4933216;28;19934;-89
2021/08/23 03:30:30;;;;;;;;;;;;;;;;;;4929419;28;19981;-89
2021/08/23 03:32:59;;;;;;;;;;;;;;;;;;4949675;28;23069;-89
2021/08/23 03:35:29;;;;;;;;;;;;;;;;;;4950294;28;19926;-89
2021/08/23 03:37:59;;;;;;;;;;;;;;;;;;4938609;28;19926;-88
2021/08/23 03:40:28;;;;;;;;;;;;;;;;;;4979314;28;19952;-87
2021/08/23 03:42:57;;;;;;;;;;;;;;;;;;4972949;28;19910;-87
2021/08/23 03:45:26;;;;;;;;;;;;;;;;;;4953253;28;19914;-88
2021/08/23 03:47:55;;;;;;;;;;;;;;;;;;4978215;28;19934;-86
2021/08/23 03:50:23;;;;;;;;;;;;;;;;;;4966558;28;19930;-87
2021/08/23 03:52:53;;;;;;;;;;;;;;;;;;4978119;28;19933;-87
2021/08/23 03:55:22;;;;;;;;;;;;;;;;;;4920144;29;20312;-87
2021/08/23 03:57:50;;;;;;;;;;;;;;;;;;4939608;28;19933;-89
2021/08/23 04:00:19;;;;;;;;;;;;;;;;;;4964582;28;19933;-88
2021/08/23 04:02:47;;;;;;;;;;;;;;;;;;4949808;28;19921;-88
2021/08/23 04:05:16;;;;;;;;;;;;;;;;;;4957088;28;19980;-87
2021/08/23 04:07:44;;;;;;;;;;;;;;;;;;4964593;28;19940;-87
2021/08/23 04:10:14;;;;;;;;;;;;;;;;;;4955739;28;19930;-89
2021/08/23 04:12:42;;;;;;;;;;;;;;;;;;4943905;28;19941;-89
2021/08/23 04:15:11;;;;;;;;;;;;;;;;;;4943339;28;19930;-91
2021/08/23 04:17:39;;;;;;;;;;;;;;;;;;4937768;28;19933;-89
2021/08/23 04:20:08;;;;;;;;;;;;;;;;;;4949565;28;19926;-89
2021/08/23 04:22:36;;;;;;;;;;;;;;;;;;4933357;28;19927;-91
2021/08/23 04:25:05;;;;;;;;;;;;;;;;;;4929981;28;19927;-91
2021/08/23 04:27:34;;;;;;;;;;;;;;;;;;4944065;28;20397;-88
2021/08/23 04:30:03;;;;;;;;;;;;;;;;;;4951296;28;20301;-90
2021/08/23 04:32:31;;;;;;;;;;;;;;;;;;4937402;28;19937;-91
2021/08/23 04:34:59;;;;;;;;;;;;;;;;;;4942594;28;20412;-90
2021/08/23 04:37:28;;;;;;;;;;;;;;;;;;4937117;28;20398;-88
2021/08/23 04:39:57;;;;;;;;;;;;;;;;;;4930584;28;19926;-91
2021/08/23 04:42:25;;;;;;;;;;;;;;;;;;4946285;28;19949;-91
2021/08/23 04:44:55;;;;;;;;;;;;;;;;;;4936211;28;19935;-90
2021/08/23 04:47:23;;;;;;;;;;;;;;;;;;4946904;28;19927;-90
2021/08/23 04:49:52;;;;;;;;;;;;;;;;;;4930612;29;20393;-90
2021/08/23 04:52:20;;;;;;;;;;;;;;;;;;4941808;28;19926;-91
2021/08/23 04:54:48;;;;;;;;;;;;;;;;;;4944468;28;19934;-91
2021/08/23 04:57:18;;;;;;;;;;;;;;;;;;4940947;28;19934;-91
2021/08/23 04:59:46;;;;;;;;;;;;;;;;;;4934397;28;20419;-88
2021/08/23 05:02:16;;;;;;;;;;;;;;;;;;4951684;28;19926;-92
2021/08/23 05:04:44;;;;;;;;;;;;;;;;;;4931575;28;19928;-91
2021/08/23 05:07:13;;;;;;;;;;;;;;;;;;4960193;28;19926;-88
2021/08/23 05:09:41;;;;;;;;;;;;;;;;;;4928359;28;20450;-89
2021/08/23 05:12:09;;;;;;;;;;;;;;;;;;4946968;28;19933;-88
2021/08/23 05:14:38;;;;;;;;;;;;;;;;;;4934815;28;19926;-90
2021/08/23 05:17:06;;;;;;;;;;;;;;;;;;4942230;28;19937;-90
2021/08/23 05:19:36;;;;;;;;;;;;;;;;;;4959746;28;19927;-90
2021/08/23 05:22:04;;;;;;;;;;;;;;;;;;4962992;28;19926;-90
2021/08/23 05:24:32;;;;;;;;;;;;;;;;;;4951589;28;20017;-90
2021/08/23 05:27:00;;;;;;;;;;;;;;;;;;4953771;28;19937;-88
2021/08/23 05:29:29;;;;;;;;;;;;;;;;;;4947966;28;20301;-89
2021/08/23 05:31:57;;;;;;;;;;;;;;;;;;4971237;28;23010;-89
2021/08/23 05:34:25;;;;;;;;;;;;;;;;;;4935740;29;20725;-90
2021/08/23 05:36:55;;;;;;;;;;;;;;;;;;4948477;28;20010;-89
2021/08/23 05:39:24;;;;;;;;;;;;;;;;;;4932320;28;19926;-89
2021/08/23 05:41:52;;;;;;;;;;;;;;;;;;4949316;28;19934;-89
2021/08/23 05:44:20;;;;;;;;;;;;;;;;;;4962082;28;19933;-87
2021/08/23 05:46:49;;;;;;;;;;;;;;;;;;4931603;28;19930;-88
2021/08/23 05:49:17;;;;;;;;;;;;;;;;;;4955450;28;19926;-89
2021/08/23 05:51:46;;;;;;;;;;;;;;;;;;4932290;28;21296;-90
2021/08/23 05:54:16;;;;;;;;;;;;;;;;;;4926457;28;19930;-88
2021/08/23 05:56:45;;;;;;;;;;;;;;;;;;4951654;28;19926;-88
2021/08/23 05:59:13;;;;;;;;;;;;;;;;;;4952597;28;19933;-90
2021/08/23 06:01:42;;;;;;;;;;;;;;;;;;4957846;28;19934;-91
2021/08/23 06:04:10;;;;;;;;;;;;;;;;;;4943582;28;19933;-90
2021/08/23 06:06:39;;;;;;;;;;;;;;;;;;4941562;28;20419;-86
2021/08/23 06:09:08;;;;;;;;;;;;;;;;;;4924558;28;19926;-89
2021/08/23 06:11:37;;;;;;;;;;;;;;;;;;4949785;28;20393;-87
2021/08/23 06:14:05;;;;;;;;;;;;;;;;;;4944686;28;19926;-89
2021/08/23 06:16:34;;;;;;;;;;;;;;;;;;4942930;28;19926;-89
2021/08/23 06:19:02;;;;;;;;;;;;;;;;;;4916011;28;20397;-89
2021/08/23 06:21:30;;;;;;;;;;;;;;;;;;4948628;28;19930;-90
2021/08/23 06:23:58;;;;;;;;;;;;;;;;;;4931993;28;19927;-90
2021/08/23 06:26:27;;;;;;;;;;;;;;;;;;4944796;28;20661;-89
2021/08/23 06:28:58;;;;;;;;;;;;;;;;;;4950539;28;19933;-89
2021/08/23 06:31:28;;;;;;;;;;;;;;;;;;4936187;28;19933;-87
2021/08/23 06:33:56;;;;;;;;;;;;;;;;;;4937532;28;19934;-88
2021/08/23 06:36:24;;;;;;;;;;;;;;;;;;4953813;28;19950;-90
2021/08/23 06:38:52;;;;;;;;;;;;;;;;;;4937054;28;19930;-89
2021/08/23 06:41:21;;;;;;;;;;;;;;;;;;4940424;28;20419;-91
2021/08/23 06:43:50;;;;;;;;;;;;;;;;;;4968499;28;20015;-88
2021/08/23 06:46:19;;;;;;;;;;;;;;;;;;4977723;28;19914;-87
2021/08/23 06:48:48;;;;;;;;;;;;;;;;;;4974759;28;20296;-90
2021/08/23 06:51:19;;;;;;;;;;;;;;;;;;4953583;28;20312;-88
2021/08/23 06:53:48;;;;;;;;;;;;;;;;;;4966456;28;19926;-89
2021/08/23 06:56:16;;;;;;;;;;;;;;;;;;4936765;28;19933;-90
2021/08/23 06:58:44;;;;;;;;;;;;;;;;;;4942939;28;19926;-89
2021/08/23 07:01:13;;;;;;;;;;;;;;;;;;4936470;28;19957;-90
2021/08/23 07:03:42;;;;;;;;;;;;;;;;;;4947575;28;20313;-89
2021/08/23 07:06:11;;;;;;;;;;;;;;;;;;4957466;28;20285;-85
2021/08/23 07:08:46;;;;;;;;;;;;;;;;;;4956558;28;19926;-89
2021/08/23 07:11:14;;;;;;;;;;;;;;;;;;4972495;28;20391;-86
2021/08/23 07:13:43;;;;;;;;;;;;;;;;;;4939708;28;19926;-89
2021/08/23 07:16:11;;;;;;;;;;;;;;;;;;4954566;28;20313;-89
2021/08/23 07:18:41;;;;;;;;;;;;;;;;;;4941060;28;19929;-88
2021/08/23 07:21:10;;;;;;;;;;;;;;;;;;4941636;28;20329;-89
2021/08/23 07:23:39;;;;;;;;;;;;;;;;;;4955064;28;19926;-88
2021/08/23 07:26:07;;;;;;;;;;;;;;;;;;4941590;28;20003;-88
2021/08/23 07:28:35;;;;;;;;;;;;;;;;;;4943519;28;19937;-88
2021/08/23 07:31:04;;;;;;;;;;;;;;;;;;4944075;28;19926;-89
2021/08/23 07:33:32;;;;;;;;;;;;;;;;;;4970281;28;20396;-86
2021/08/23 07:36:01;;;;;;;;;;;;;;;;;;4941028;28;20304;-89
2021/08/23 07:38:31;;;;;;;;;;;;;;;;;;4946091;28;20240;-89
2021/08/23 07:41:01;;;;;;;;;;;;;;;;;;4940378;28;20343;-87
2021/08/23 07:43:29;;;;;;;;;;;;;;;;;;4958666;28;19930;-88
2021/08/23 07:45:57;;;;;;;;;;;;;;;;;;4947360;28;19945;-87
2021/08/23 07:48:26;;;;;;;;;;;;;;;;;;4954045;28;19926;-88
2021/08/23 07:50:54;;;;;;;;;;;;;;;;;;4963383;28;19933;-88
2021/08/23 07:53:22;;;;;;;;;;;;;;;;;;4940628;28;19933;-88
2021/08/23 07:55:52;;;;;;;;;;;;;;;;;;4940042;28;19933;-87
2021/08/23 07:58:20;;;;;;;;;;;;;;;;;;4941473;28;19933;-89
2021/08/23 08:00:48;;;;;;;;;;;;;;;;;;4957657;28;19926;-87
2021/08/23 08:03:17;;;;;;;;;;;;;;;;;;4971337;28;19933;-88
2021/08/23 08:05:45;;;;;;;;;;;;;;;;;;4957953;28;19938;-89
2021/08/23 08:08:13;;;;;;;;;;;;;;;;;;4956418;28;20376;-88
2021/08/23 08:10:42;;;;;;;;;;;;;;;;;;4955997;28;19930;-89
2021/08/23 08:13:11;;;;;;;;;;;;;;;;;;4954404;28;19934;-88
2021/08/23 08:15:40;;;;;;;;;;;;;;;;;;4957641;28;19926;-88
2021/08/23 08:18:08;;;;;;;;;;;;;;;;;;4944097;28;19926;-88
2021/08/23 08:20:37;;;;;;;;;;;;;;;;;;4953213;28;19949;-87
2021/08/23 08:23:05;;;;;;;;;;;;;;;;;;4973293;28;20550;-87
2021/08/23 08:25:33;;;;;;;;;;;;;;;;;;4937058;28;19933;-88
2021/08/23 08:28:01;;;;;;;;;;;;;;;;;;4949403;28;19930;-88
2021/08/23 08:30:31;;;;;;;;;;;;;;;;;;4940012;28;19930;-88
2021/08/23 08:33:00;;;;;;;;;;;;;;;;;;4957158;28;20032;-89
2021/08/23 08:35:28;;;;;;;;;;;;;;;;;;4940219;28;19926;-87
2021/08/23 08:37:57;;;;;;;;;;;;;;;;;;4944798;28;19934;-88
2021/08/23 08:40:25;;;;;;;;;;;;;;;;;;4962216;28;19926;-87
2021/08/23 08:43:22;;;;;;;;;;;;;;;;;;4937190;28;19927;-87
2021/08/23 08:49:56;;;;;;;;;;;;;;;;;;4965154;28;19929;-87
2021/08/23 08:52:25;;;;;;;;;;;;;;;;;;4937199;28;19927;-87
2021/08/23 08:54:53;;;;;;;;;;;;;;;;;;4961740;28;19933;-87
2021/08/23 08:57:21;;;;;;;;;;;;;;;;;;4950893;28;19926;-87
2021/08/23 08:59:50;;;;;;;;;;;;;;;;;;4941930;28;19926;-86
2021/08/23 09:02:18;;;;;;;;;;;;;;;;;;4950771;28;19937;-88
2021/08/23 09:04:47;;;;;;;;;;;;;;;;;;4947391;28;19930;-87
2021/08/23 09:07:39;;;;;;;;;;;;;;;;;;4937930;28;19926;-82
2021/08/23 09:10:20;;;;;;;;;;;;;;;;;;4953431;28;19933;-87
2021/08/23 09:13:00;;;;;;;;;;;;;;;;;;4963764;28;20397;-87
2021/08/23 09:15:29;;;;;;;;;;;;;;;;;;4951389;28;19926;-88
2021/08/23 09:18:02;;;;;;;;;;;;;;;;;;4934692;28;20015;-81
2021/08/23 09:20:30;;;;;;;;;;;;;;;;;;4960586;28;19934;-87
2021/08/23 09:23:09;;;;;;;;;;;;;;;;;;4957808;28;22705;-88
2021/08/23 09:25:37;;;;;;;;;;;;;;;;;;4938872;28;19934;-87
2021/08/23 09:28:07;;;;;;;;;;;;;;;;;;4945177;28;19930;-88
2021/08/23 09:30:36;;;;;;;;;;;;;;;;;;4936140;28;19927;-87
2021/08/23 09:33:05;;;;;;;;;;;;;;;;;;4949394;29;19934;-89
2021/08/23 09:35:35;;;;;;;;;;;;;;;;;;4948173;28;20407;-88
2021/08/23 09:38:04;;;;;;;;;;;;;;;;;;4948192;28;19953;-87
2021/08/23 09:40:35;;;;;;;;;;;;;;;;;;4958004;28;19933;-87
2021/08/23 09:43:09;;;;;;;;;;;;;;;;;;4953047;28;19933;-84
2021/08/23 09:45:38;;;;;;;;;;;;;;;;;;4971406;28;19926;-87
2021/08/23 09:48:10;;;;;;;;;;;;;;;;;;4964293;28;19934;-87
2021/08/23 09:50:45;;;;;;;;;;;;;;;;;;4930555;28;20376;-85
2021/08/23 09:53:29;;;;;;;;;;;;;;;;;;4932450;28;20336;-81
2021/08/23 09:55:59;;;;;;;;;;;;;;;;;;4951641;28;19934;-87
2021/08/23 09:58:27;;;;;;;;;;;;;;;;;;4933000;28;20289;-87
2021/08/23 10:00:56;;;;;;;;;;;;;;;;;;4928294;28;19934;-86
2021/08/23 10:03:24;;;;;;;;;;;;;;;;;;4951624;28;19926;-86
2021/08/23 10:06:12;;;;;;;;;;;;;;;;;;4933826;28;20003;-85
2021/08/23 10:08:41;;;;;;;;;;;;;;;;;;4961996;28;19930;-88
2021/08/23 10:11:11;;;;;;;;;;;;;;;;;;4944102;28;20344;-86
2021/08/23 10:13:40;;;;;;;;;;;;;;;;;;4949978;28;19934;-87
2021/08/23 10:16:08;;;;;;;;;;;;;;;;;;4966657;28;19934;-88
2021/08/23 10:18:37;;;;;;;;;;;;;;;;;;4943429;28;19933;-87
2021/08/23 10:21:07;;;;;;;;;;;;;;;;;;4936113;28;19926;-82
2021/08/23 10:23:36;;;;;;;;;;;;;;;;;;4933830;28;19930;-86
2021/08/23 10:26:04;;;;;;;;;;;;;;;;;;4946905;28;19937;-87
2021/08/23 10:28:37;;;;;;;;;;;;;;;;;;4945110;28;19933;-87
2021/08/23 10:31:06;;;;;;;;;;;;;;;;;;4944135;28;19953;-86
2021/08/23 10:33:36;;;;;;;;;;;;;;;;;;4965797;28;19926;-83
2021/08/23 10:36:06;;;;;;;;;;;;;;;;;;4937728;28;19937;-84
2021/08/23 10:38:35;;;;;;;;;;;;;;;;;;4944141;28;19926;-84
2021/08/23 10:41:07;;;;;;;;;;;;;;;;;;4949992;28;20411;-83
2021/08/23 10:43:50;;;;;;;;;;;;;;;;;;4942088;28;19926;-83
2021/08/23 10:46:22;;;;;;;;;;;;;;;;;;4942721;28;19934;-83
2021/08/23 10:48:51;;;;;;;;;;;;;;;;;;4943857;28;19937;-83
2021/08/23 10:51:29;;;;;;;;;;;;;;;;;;4949848;28;19926;-83
2021/08/23 10:53:57;;;;;;;;;;;;;;;;;;4947925;28;19945;-83
2021/08/23 10:56:34;;;;;;;;;;;;;;;;;;4950611;28;20005;-83
2021/08/23 10:59:13;;;;;;;;;;;;;;;;;;4952613;28;20308;-81
2021/08/23 11:01:52;;;;;;;;;;;;;;;;;;4937517;28;19957;-84
2021/08/23 11:04:29;;;;;;;;;;;;;;;;;;4958471;28;19926;-82
2021/08/23 11:06:58;;;;;;;;;;;;;;;;;;4945403;28;19989;-83
2021/08/23 11:09:33;;;;;;;;;;;;;;;;;;4937485;28;19937;-83
2021/08/23 11:12:13;;;;;;;;;;;;;;;;;;4951843;28;19926;-83
2021/08/23 11:14:47;;;;;;;;;;;;;;;;;;4943570;28;20411;-82
2021/08/23 11:17:27;;;;;;;;;;;;;;;;;;4949224;28;19931;-84
2021/08/23 11:19:56;;;;;;;;;;;;;;;;;;4969428;28;19942;-81
2021/08/23 11:22:24;;;;;;;;;;;;;;;;;;4962754;28;19925;-80
2021/08/23 11:24:53;;;;;;;;;;;;;;;;;;4961499;28;19920;-81
2021/08/23 11:27:22;;;;;;;;;;;;;;;;;;4969196;28;19924;-81
2021/08/23 11:29:52;;;;;;;;;;;;;;;;;;4955233;28;19935;-83
2021/08/23 11:32:23;;;;;;;;;;;;;;;;;;4942271;28;19930;-81
2021/08/23 11:34:52;;;;;;;;;;;;;;;;;;4979083;28;19930;-83
2021/08/23 11:37:23;;;;;;;;;;;;;;;;;;4947252;28;20286;-83
2021/08/23 11:40:02;;;;;;;;;;;;;;;;;;4964518;28;19914;-82
2021/08/23 11:42:30;;;;;;;;;;;;;;;;;;4956411;28;19915;-83
2021/08/23 11:45:05;;;;;;;;;;;;;;;;;;4955848;28;19929;-82
2021/08/23 11:47:35;;;;;;;;;;;;;;;;;;4966534;28;19924;-82
2021/08/23 11:50:03;;;;;;;;;;;;;;;;;;4946802;28;19926;-84
2021/08/23 11:52:32;;;;;;;;;;;;;;;;;;4969988;28;19926;-83
2021/08/23 11:55:00;;;;;;;;;;;;;;;;;;4935534;28;19933;-83
2021/08/23 11:57:29;;;;;;;;;;;;;;;;;;4933122;28;19934;-83
2021/08/23 11:59:58;;;;;;;;;;;;;;;;;;4949633;28;19926;-84
2021/08/23 12:02:31;;;;;;;;;;;;;;;;;;4937469;28;19926;-83
2021/08/23 12:05:07;;;;;;;;;;;;;;;;;;4950172;28;19926;-83
2021/08/23 12:07:45;;;;;;;;;;;;;;;;;;4950401;28;19930;-84
2021/08/23 12:10:24;;;;;;;;;;;;;;;;;;4955549;28;19930;-85
2021/08/23 12:12:52;;;;;;;;;;;;;;;;;;4940809;28;20015;-84
2021/08/23 12:15:23;;;;;;;;;;;;;;;;;;4941163;28;19930;-81
2021/08/23 12:17:53;;;;;;;;;;;;;;;;;;4956124;28;20308;-84
2021/08/23 12:20:22;;;;;;;;;;;;;;;;;;4953642;28;19930;-84
2021/08/23 12:22:50;;;;;;;;;;;;;;;;;;4957176;28;20415;-83
2021/08/23 12:25:25;;;;;;;;;;;;;;;;;;4973485;28;19942;-84
2021/08/23 12:27:53;;;;;;;;;;;;;;;;;;4950487;28;19926;-83
2021/08/23 12:30:25;;;;;;;;;;;;;;;;;;4966160;28;19949;-84
2021/08/23 12:32:55;;;;;;;;;;;;;;;;;;4942166;28;19926;-82
2021/08/23 12:35:30;;;;;;;;;;;;;;;;;;4960639;28;19926;-82
2021/08/23 12:37:59;;;;;;;;;;;;;;;;;;4978134;28;19915;-81
2021/08/23 12:40:27;;;;;;;;;;;;;;;;;;4963175;28;19934;-82
2021/08/23 12:42:56;;;;;;;;;;;;;;;;;;4941156;28;19937;-83
2021/08/23 12:45:24;;;;;;;;;;;;;;;;;;4965368;28;19932;-81
2021/08/23 12:47:53;;;;;;;;;;;;;;;;;;4944196;28;19926;-83
2021/08/23 12:50:23;;;;;;;;;;;;;;;;;;4953733;28;19933;-83
2021/08/23 12:52:51;;;;;;;;;;;;;;;;;;4943957;28;19926;-83
2021/08/23 12:55:19;;;;;;;;;;;;;;;;;;4939989;28;19926;-83
2021/08/23 12:57:47;;;;;;;;;;;;;;;;;;4935958;28;19957;-83
2021/08/23 13:00:16;;;;;;;;;;;;;;;;;;4959920;28;19930;-82
2021/08/23 13:02:47;;;;;;;;;;;;;;;;;;4941146;28;19942;-83
2021/08/23 13:05:15;;;;;;;;;;;;;;;;;;4938406;28;19937;-83
2021/08/23 13:07:45;;;;;;;;;;;;;;;;;;4939801;28;19926;-83
2021/08/23 13:10:13;;;;;;;;;;;;;;;;;;4958909;28;20415;-81
2021/08/23 13:12:41;;;;;;;;;;;;;;;;;;4956256;28;19930;-82
2021/08/23 13:15:10;;;;;;;;;;;;;;;;;;4937260;28;19942;-83
2021/08/23 13:17:38;;;;;;;;;;;;;;;;;;4951519;28;19937;-84
2021/08/23 13:20:07;;;;;;;;;;;;;;;;;;4941919;28;19926;-84
2021/08/23 13:22:36;;;;;;;;;;;;;;;;;;4942668;28;19933;-84
2021/08/23 13:25:06;;;;;;;;;;;;;;;;;;4936414;28;20312;-83
2021/08/23 13:27:34;;;;;;;;;;;;;;;;;;4954719;28;19934;-84
2021/08/23 13:30:02;;;;;;;;;;;;;;;;;;4947748;28;20324;-83
2021/08/23 13:32:30;;;;;;;;;;;;;;;;;;4937586;28;19926;-83
2021/08/23 13:34:59;;;;;;;;;;;;;;;;;;4936542;28;19949;-83
2021/08/23 13:37:27;;;;;;;;;;;;;;;;;;4945469;28;19943;-81
2021/08/23 13:39:55;;;;;;;;;;;;;;;;;;4936382;28;19933;-82
2021/08/23 13:42:25;;;;;;;;;;;;;;;;;;4935131;28;20408;-83
2021/08/23 13:44:53;;;;;;;;;;;;;;;;;;4958478;28;19957;-83
2021/08/23 13:47:21;;;;;;;;;;;;;;;;;;4939717;28;20328;-83
2021/08/23 13:49:49;;;;;;;;;;;;;;;;;;4941346;28;19933;-82
2021/08/23 13:52:18;;;;;;;;;;;;;;;;;;4940393;28;19930;-83
2021/08/23 13:54:46;;;;;;;;;;;;;;;;;;4955219;28;20007;-82
2021/08/23 13:57:14;;;;;;;;;;;;;;;;;;4936520;28;20211;-84
2021/08/23 13:59:44;;;;;;;;;;;;;;;;;;4939491;28;19926;-84
2021/08/23 14:02:12;;;;;;;;;;;;;;;;;;4959848;28;19933;-83
2021/08/23 14:04:41;;;;;;;;;;;;;;;;;;4949380;28;19926;-81
2021/08/23 14:07:09;;;;;;;;;;;;;;;;;;4949846;28;19929;-80
2021/08/23 14:09:37;;;;;;;;;;;;;;;;;;4942361;28;19934;-82
2021/08/23 14:12:06;;;;;;;;;;;;;;;;;;4950066;28;19926;-82
2021/08/23 14:14:34;;;;;;;;;;;;;;;;;;4956836;28;19938;-83
2021/08/23 14:17:05;;;;;;;;;;;;;;;;;;4947162;28;19927;-82
2021/08/23 14:19:33;;;;;;;;;;;;;;;;;;4937523;28;19926;-83
2021/08/23 14:22:01;;;;;;;;;;;;;;;;;;4962486;28;20122;-84
2021/08/23 14:24:30;;;;;;;;;;;;;;;;;;4944735;28;19926;-82
2021/08/23 14:26:58;;;;;;;;;;;;;;;;;;4946281;28;19930;-82
2021/08/23 14:29:26;;;;;;;;;;;;;;;;;;4952394;28;19926;-83
2021/08/23 14:31:57;;;;;;;;;;;;;;;;;;4957730;28;20658;-83
2021/08/23 14:34:27;;;;;;;;;;;;;;;;;;4940448;28;19926;-83
2021/08/23 14:36:55;;;;;;;;;;;;;;;;;;4943863;28;19926;-83
2021/08/23 14:39:23;;;;;;;;;;;;;;;;;;4957951;28;19930;-81
2021/08/23 14:41:51;;;;;;;;;;;;;;;;;;4959828;28;20028;-83
2021/08/23 14:44:20;;;;;;;;;;;;;;;;;;4944616;28;19941;-84
2021/08/23 14:46:48;;;;;;;;;;;;;;;;;;4946533;28;20393;-82
2021/08/23 14:49:16;;;;;;;;;;;;;;;;;;4957648;28;19937;-82
2021/08/23 14:51:46;;;;;;;;;;;;;;;;;;4965614;28;19933;-81
2021/08/23 14:54:14;;;;;;;;;;;;;;;;;;4943922;28;19927;-83
2021/08/23 14:56:43;;;;;;;;;;;;;;;;;;4953064;28;19930;-84
2021/08/23 14:59:11;;;;;;;;;;;;;;;;;;4944439;28;19934;-83
2021/08/23 15:01:39;;;;;;;;;;;;;;;;;;4943591;28;19941;-84
2021/08/23 15:04:08;;;;;;;;;;;;;;;;;;4941837;28;20412;-82
2021/08/23 15:06:36;;;;;;;;;;;;;;;;;;4938976;28;19937;-82
2021/08/23 15:09:06;;;;;;;;;;;;;;;;;;4952676;28;19926;-83
2021/08/23 15:11:34;;;;;;;;;;;;;;;;;;4937796;28;19930;-82
2021/08/23 15:14:03;;;;;;;;;;;;;;;;;;4949301;28;19941;-83
2021/08/23 15:16:32;;;;;;;;;;;;;;;;;;4942951;28;19937;-82
2021/08/23 15:19:01;;;;;;;;;;;;;;;;;;4934191;28;20304;-83
2021/08/23 15:21:29;;;;;;;;;;;;;;;;;;4947923;29;19933;-83
2021/08/23 15:23:57;;;;;;;;;;;;;;;;;;4950287;28;19931;-83
2021/08/23 15:26:27;;;;;;;;;;;;;;;;;;4963817;28;19933;-84
2021/08/23 15:28:55;;;;;;;;;;;;;;;;;;4954173;28;19937;-84
2021/08/23 15:31:23;;;;;;;;;;;;;;;;;;4936785;28;19937;-84
2021/08/23 15:33:52;;;;;;;;;;;;;;;;;;4956252;28;19910;-81
2021/08/23 15:36:20;;;;;;;;;;;;;;;;;;4995271;28;19918;-82
2021/08/23 15:38:50;;;;;;;;;;;;;;;;;;4983744;28;19936;-83
2021/08/23 15:41:18;;;;;;;;;;;;;;;;;;4947366;28;19926;-82
2021/08/23 15:43:48;;;;;;;;;;;;;;;;;;4953975;28;19937;-84
2021/08/23 15:46:16;;;;;;;;;;;;;;;;;;4977081;28;19926;-84
2021/08/23 15:48:44;;;;;;;;;;;;;;;;;;4937715;28;19937;-81
2021/08/23 15:51:13;;;;;;;;;;;;;;;;;;4957608;28;20410;-85
2021/08/23 15:53:41;;;;;;;;;;;;;;;;;;4939488;28;19934;-84
2021/08/23 15:56:10;;;;;;;;;;;;;;;;;;4945240;28;19926;-83
2021/08/23 15:58:38;;;;;;;;;;;;;;;;;;4960424;28;19933;-84
2021/08/23 16:01:08;;;;;;;;;;;;;;;;;;4955476;28;19930;-82
2021/08/23 16:03:37;;;;;;;;;;;;;;;;;;4965924;28;19941;-84
2021/08/23 16:06:05;;;;;;;;;;;;;;;;;;4946474;28;19926;-85
2021/08/23 16:08:37;;;;;;;;;;;;;;;;;;4943476;28;19933;-86
2021/08/23 16:11:11;;;;;;;;;;;;;;;;;;4943152;28;19926;-86
2021/08/23 16:13:40;;;;;;;;;;;;;;;;;;4941439;28;19930;-84
2021/08/23 16:16:10;;;;;;;;;;;;;;;;;;4946309;28;19926;-85
2021/08/23 16:18:38;;;;;;;;;;;;;;;;;;4948409;28;20008;-84
2021/08/23 16:21:06;;;;;;;;;;;;;;;;;;4938396;28;19933;-83
2021/08/23 16:23:35;;;;;;;;;;;;;;;;;;4941705;28;19926;-85
2021/08/23 16:30:04;;;;;;;;;;;;;;;;;;4943432;28;19918;-86
2021/08/23 16:32:35;;;;;;;;;;;;;;;;;;4949590;28;20416;-86
2021/08/23 16:35:04;;;;;;;;;;;;;;;;;;4943065;28;19938;-86
2021/08/23 16:37:33;;;;;;;;;;;;;;;;;;4943832;29;19931;-87
2021/08/23 16:40:09;;;;;;;;;;;;;;;;;;4954472;28;19949;-87
2021/08/23 16:42:37;;;;;;;;;;;;;;;;;;4946060;28;19934;-84
2021/08/23 16:45:06;;;;;;;;;;;;;;;;;;4943978;28;20304;-87
2021/08/23 16:47:36;;;;;;;;;;;;;;;;;;4940363;28;19926;-87
2021/08/23 16:50:06;;;;;;;;;;;;;;;;;;4929914;28;19934;-87
2021/08/23 16:52:34;;;;;;;;;;;;;;;;;;4934199;28;19934;-85
2021/08/23 16:55:03;;;;;;;;;;;;;;;;;;4937269;28;19944;-88
2021/08/23 16:57:33;;;;;;;;;;;;;;;;;;4922166;28;19937;-88
2021/08/23 17:00:04;;;;;;;;;;;;;;;;;;4936333;28;19933;-88
2021/08/23 17:02:35;;;;;;;;;;;;;;;;;;4925372;28;20388;-86
2021/08/23 17:05:07;;;;;;;;;;;;;;;;;;4930007;28;19927;-87
2021/08/23 17:07:37;;;;;;;;;;;;;;;;;;4925806;28;20623;-86
2021/08/23 17:10:15;;;;;;;;;;;;;;;;;;4921971;28;19926;-87